Terminal Aerodrome Forecast
Issued by NWS

Home | Current Version | Previous Version | Text Only | Print | Product List | Glossary On
Versions: 1 2 3 4 5 6 7 8 9 10 11 12 13
000
FTUS42 TJSJ 242339
TAFJPS
TAF
TJPS 242339Z 2500/2524 VRB06KT P6SM FEW030 BKN100
     FM251500 15012G17KT P6SM FEW030 SCT060
     FM252330 06005KT P6SM FEW030 FEW060
      AMD NOT SKED TIL 250300=

USA.gov is the U.S. government's official web portal to all federal, state and local government web resources and services.